createdAt,value
2023-02-27T00:04:54.685Z,79.87
2023-02-27T00:15:00.501Z,80.18
2023-02-27T00:25:07.924Z,80.00
2023-02-27T00:35:14.252Z,80.67
2023-02-27T00:45:20.820Z,80.61
2023-02-27T00:55:27.453Z,80.92
2023-02-27T01:05:33.170Z,81.05
2023-02-27T01:15:39.526Z,81.27
2023-02-27T01:25:45.322Z,81.47
2023-02-27T01:35:51.151Z,81.69
2023-02-27T01:45:57.348Z,82.42
2023-02-27T01:56:11.426Z,82.73
2023-02-27T02:06:17.567Z,83.22
2023-02-27T02:16:27.245Z,83.75
2023-02-27T02:26:44.901Z,84.43
2023-02-27T02:37:12.266Z,84.89
2023-02-27T02:47:28.727Z,85.71
2023-02-27T02:57:40.492Z,86.06
2023-02-27T03:07:52.065Z,86.70
2023-02-27T03:18:04.236Z,86.81
2023-02-27T03:28:15.590Z,87.29
2023-02-27T03:38:29.023Z,87.52
2023-02-27T03:48:34.828Z,87.82
2023-02-27T03:58:40.772Z,88.18
2023-02-27T04:08:59.296Z,88.42
2023-02-27T04:19:18.233Z,88.43
2023-02-27T04:29:35.240Z,88.48
2023-02-27T04:39:51.731Z,89.08
2023-02-27T04:50:01.185Z,88.75
2023-02-27T05:00:12.070Z,89.03
2023-02-27T05:10:25.381Z,89.20
2023-02-27T05:20:37.001Z,89.31
2023-02-27T05:30:49.575Z,89.57
2023-02-27T05:40:59.246Z,89.65
2023-02-27T05:51:07.929Z,89.89
2023-02-27T06:01:14.769Z,89.88
2023-02-27T06:11:20.591Z,89.95
2023-02-27T06:21:26.165Z,89.76
2023-02-27T06:31:31.969Z,90.00
2023-02-27T06:41:37.880Z,89.86
2023-02-27T06:51:45.048Z,89.77
2023-02-27T07:01:50.823Z,89.71
2023-02-27T07:11:56.525Z,89.52
2023-02-27T07:22:02.471Z,89.05
2023-02-27T07:32:08.217Z,88.43
2023-02-27T07:42:14.334Z,86.33
2023-02-27T07:52:20.154Z,84.71
2023-02-27T08:02:26.025Z,84.26
2023-02-27T08:12:31.843Z,83.90
2023-02-27T08:22:37.841Z,82.48
2023-02-27T08:32:45.038Z,80.98
2023-02-27T08:42:51.648Z,80.79
2023-02-27T08:52:57.611Z,80.06
2023-02-27T09:03:03.911Z,79.34
2023-02-27T09:13:10.348Z,79.61
2023-02-27T09:23:16.762Z,78.29
2023-02-27T09:33:22.564Z,76.41
2023-02-27T09:43:36.636Z,75.32
2023-02-27T09:53:44.218Z,71.55
2023-02-27T10:04:04.474Z,69.27
2023-02-27T10:14:26.810Z,67.43
2023-02-27T10:24:37.020Z,66.50
2023-02-27T10:34:45.355Z,64.89
2023-02-27T10:44:53.995Z,62.36
2023-02-27T10:55:20.846Z,60.98
2023-02-27T11:05:29.985Z,61.76
2023-02-27T11:15:37.218Z,61.27
2023-02-27T11:25:46.268Z,60.11
2023-02-27T11:35:57.884Z,59.31
2023-02-27T11:46:36.451Z,59.74
2023-02-27T11:56:39.385Z,59.33
2023-02-27T12:06:53.283Z,58.20
2023-02-27T12:17:05.075Z,57.47
2023-02-27T12:27:19.409Z,56.69
2023-02-27T12:37:27.414Z,57.56
2023-02-27T12:47:43.405Z,57.17
2023-02-27T12:58:15.124Z,56.56
2023-02-27T13:08:33.643Z,56.47
2023-02-27T13:18:45.649Z,55.99
2023-02-27T13:28:52.587Z,56.33
2023-02-27T13:38:58.719Z,57.40
2023-02-27T13:49:29.549Z,58.06
2023-02-27T13:59:37.868Z,58.46
2023-02-27T14:09:46.370Z,58.12
2023-02-27T14:20:01.062Z,58.00
2023-02-27T14:30:22.887Z,57.86
2023-02-27T14:40:35.046Z,58.18
2023-02-27T14:50:42.797Z,58.96
2023-02-27T15:00:58.277Z,59.35
2023-02-27T15:11:04.234Z,59.55
2023-02-27T15:21:16.671Z,59.12
2023-02-27T15:31:27.093Z,59.19
2023-02-27T15:41:33.378Z,59.68
2023-02-27T15:51:40.505Z,59.85
2023-02-27T16:01:49.634Z,59.92
2023-02-27T16:12:12.656Z,59.71
2023-02-27T16:22:21.005Z,59.39
2023-02-27T16:32:30.886Z,59.75
2023-02-27T16:42:36.586Z,59.91
2023-02-27T16:52:42.255Z,60.13
2023-02-27T17:02:48.383Z,60.45
2023-02-27T17:12:54.551Z,60.52
2023-02-27T17:23:00.233Z,60.85
2023-02-27T17:33:06.087Z,60.98
2023-02-27T17:43:11.963Z,61.22
2023-02-27T17:53:17.680Z,61.41
2023-02-27T18:03:23.264Z,61.67
2023-02-27T18:13:29.537Z,61.77
2023-02-27T18:23:35.674Z,62.04
2023-02-27T18:33:41.521Z,62.16
2023-02-27T18:43:47.538Z,62.34
2023-02-27T18:53:54.068Z,62.60
2023-02-27T19:04:03.483Z,62.58
2023-02-27T19:14:12.544Z,63.11
2023-02-27T19:24:18.268Z,62.87
2023-02-27T19:34:23.964Z,62.57
2023-02-27T19:44:29.618Z,62.90
2023-02-27T19:54:35.299Z,63.47
2023-02-27T20:04:40.975Z,63.24
2023-02-27T20:14:46.609Z,62.54
2023-02-27T20:24:52.513Z,62.47
2023-02-27T20:34:58.200Z,62.74
2023-02-27T20:45:04.048Z,63.35
2023-02-27T20:55:11.348Z,63.93
2023-02-27T21:05:17.584Z,64.62
2023-02-27T21:15:23.292Z,65.33
2023-02-27T21:25:29.551Z,65.73
2023-02-27T21:35:35.495Z,65.72
2023-02-27T21:45:46.274Z,65.61
2023-02-27T21:55:54.495Z,65.52
2023-02-27T22:06:00.242Z,65.65
2023-02-27T22:16:11.368Z,65.72
2023-02-27T22:26:20.037Z,66.28
2023-02-27T22:36:29.151Z,66.86
2023-02-27T22:46:36.963Z,67.41
2023-02-27T22:56:42.669Z,67.75
2023-02-27T23:06:48.351Z,67.87
2023-02-27T23:16:53.968Z,68.06
2023-02-27T23:27:00.324Z,68.62
2023-02-27T23:37:06.816Z,68.63
2023-02-27T23:47:29.675Z,68.50
2023-02-27T23:57:35.468Z,68.49
